sensor_id;sensor_type;location;lat;lon;timestamp;P1;durP1;ratioP1;P2;durP2;ratioP2
7017;SDS011;3549;42.162;24.726;2022-09-30T00:01:22;10.07;;;5.70;;
7017;SDS011;3549;42.162;24.726;2022-09-30T00:03:51;8.37;;;5.80;;
7017;SDS011;3549;42.162;24.726;2022-09-30T00:06:18;7.23;;;5.60;;
7017;SDS011;3549;42.162;24.726;2022-09-30T00:08:44;11.60;;;6.20;;
7017;SDS011;3549;42.162;24.726;2022-09-30T00:11:16;7.10;;;5.73;;
7017;SDS011;3549;42.162;24.726;2022-09-30T00:13:44;8.57;;;5.70;;
7017;SDS011;3549;42.162;24.726;2022-09-30T00:16:11;8.03;;;5.50;;
7017;SDS011;3549;42.162;24.726;2022-09-30T00:18:38;7.47;;;5.50;;
7017;SDS011;3549;42.162;24.726;2022-09-30T00:21:04;8.03;;;5.77;;
7017;SDS011;3549;42.162;24.726;2022-09-30T00:23:30;7.03;;;5.73;;
7017;SDS011;3549;42.162;24.726;2022-09-30T00:25:56;8.73;;;6.00;;
7017;SDS011;3549;42.162;24.726;2022-09-30T00:28:24;9.37;;;6.33;;
7017;SDS011;3549;42.162;24.726;2022-09-30T00:30:49;9.27;;;6.13;;
7017;SDS011;3549;42.162;24.726;2022-09-30T00:33:14;8.20;;;5.93;;
7017;SDS011;3549;42.162;24.726;2022-09-30T00:35:40;10.97;;;6.13;;
7017;SDS011;3549;42.162;24.726;2022-09-30T00:38:05;7.67;;;5.97;;
7017;SDS011;3549;42.162;24.726;2022-09-30T00:40:31;7.17;;;5.70;;
7017;SDS011;3549;42.162;24.726;2022-09-30T00:42:56;8.07;;;6.10;;
7017;SDS011;3549;42.162;24.726;2022-09-30T00:45:25;8.10;;;5.90;;
7017;SDS011;3549;42.162;24.726;2022-09-30T00:50:37;8.30;;;6.20;;
7017;SDS011;3549;42.162;24.726;2022-09-30T00:53:15;9.60;;;6.00;;
7017;SDS011;3549;42.162;24.726;2022-09-30T00:58:30;10.33;;;6.20;;
7017;SDS011;3549;42.162;24.726;2022-09-30T01:01:00;9.73;;;6.30;;
7017;SDS011;3549;42.162;24.726;2022-09-30T01:03:37;10.07;;;6.03;;
7017;SDS011;3549;42.162;24.726;2022-09-30T01:06:07;10.70;;;6.80;;
7017;SDS011;3549;42.162;24.726;2022-09-30T01:08:34;10.07;;;7.00;;
7017;SDS011;3549;42.162;24.726;2022-09-30T01:11:02;10.17;;;6.57;;
7017;SDS011;3549;42.162;24.726;2022-09-30T01:13:28;7.67;;;6.30;;
7017;SDS011;3549;42.162;24.726;2022-09-30T01:21:45;10.50;;;6.87;;
7017;SDS011;3549;42.162;24.726;2022-09-30T01:38:15;10.60;;;6.60;;
7017;SDS011;3549;42.162;24.726;2022-09-30T01:40:57;10.57;;;6.73;;
7017;SDS011;3549;42.162;24.726;2022-09-30T01:46:30;10.80;;;6.70;;
7017;SDS011;3549;42.162;24.726;2022-09-30T01:49:07;9.10;;;6.63;;
7017;SDS011;3549;42.162;24.726;2022-09-30T01:51:42;9.97;;;6.97;;
7017;SDS011;3549;42.162;24.726;2022-09-30T01:54:36;10.00;;;6.93;;
7017;SDS011;3549;42.162;24.726;2022-09-30T01:57:09;10.83;;;7.60;;
7017;SDS011;3549;42.162;24.726;2022-09-30T01:59:56;17.77;;;9.33;;
7017;SDS011;3549;42.162;24.726;2022-09-30T02:02:34;13.37;;;9.30;;
7017;SDS011;3549;42.162;24.726;2022-09-30T02:05:07;12.70;;;7.63;;
7017;SDS011;3549;42.162;24.726;2022-09-30T02:07:40;12.67;;;7.40;;
7017;SDS011;3549;42.162;24.726;2022-09-30T02:10:12;13.17;;;7.07;;
7017;SDS011;3549;42.162;24.726;2022-09-30T02:12:46;12.10;;;8.10;;
7017;SDS011;3549;42.162;24.726;2022-09-30T02:15:17;9.33;;;8.00;;
7017;SDS011;3549;42.162;24.726;2022-09-30T02:17:57;13.60;;;8.17;;
7017;SDS011;3549;42.162;24.726;2022-09-30T02:20:31;13.87;;;9.07;;
7017;SDS011;3549;42.162;24.726;2022-09-30T02:23:02;12.93;;;7.67;;
7017;SDS011;3549;42.162;24.726;2022-09-30T02:25:57;12.40;;;7.30;;
7017;SDS011;3549;42.162;24.726;2022-09-30T02:28:32;10.03;;;6.97;;
7017;SDS011;3549;42.162;24.726;2022-09-30T02:31:03;10.33;;;7.37;;
7017;SDS011;3549;42.162;24.726;2022-09-30T02:33:34;9.17;;;6.70;;
7017;SDS011;3549;42.162;24.726;2022-09-30T02:36:07;9.83;;;7.10;;
7017;SDS011;3549;42.162;24.726;2022-09-30T02:38:42;22.33;;;14.37;;
7017;SDS011;3549;42.162;24.726;2022-09-30T02:41:11;20.97;;;14.33;;
7017;SDS011;3549;42.162;24.726;2022-09-30T02:43:45;15.93;;;11.20;;
7017;SDS011;3549;42.162;24.726;2022-09-30T02:48:44;9.73;;;6.97;;
7017;SDS011;3549;42.162;24.726;2022-09-30T02:56:56;9.80;;;7.23;;
7017;SDS011;3549;42.162;24.726;2022-09-30T02:59:28;8.87;;;6.70;;
7017;SDS011;3549;42.162;24.726;2022-09-30T03:01:54;8.83;;;7.27;;
7017;SDS011;3549;42.162;24.726;2022-09-30T03:04:29;11.13;;;7.63;;
7017;SDS011;3549;42.162;24.726;2022-09-30T03:06:58;9.03;;;6.83;;
7017;SDS011;3549;42.162;24.726;2022-09-30T03:09:25;10.17;;;7.20;;
7017;SDS011;3549;42.162;24.726;2022-09-30T03:11:51;11.80;;;8.30;;
7017;SDS011;3549;42.162;24.726;2022-09-30T03:20:17;11.50;;;7.97;;
7017;SDS011;3549;42.162;24.726;2022-09-30T03:28:32;14.87;;;8.70;;
7017;SDS011;3549;42.162;24.726;2022-09-30T03:31:29;15.23;;;8.70;;
7017;SDS011;3549;42.162;24.726;2022-09-30T03:37:06;17.57;;;9.43;;
7017;SDS011;3549;42.162;24.726;2022-09-30T03:42:27;12.77;;;9.03;;
7017;SDS011;3549;42.162;24.726;2022-09-30T03:48:04;21.03;;;9.37;;
7017;SDS011;3549;42.162;24.726;2022-09-30T03:50:33;20.57;;;8.60;;
7017;SDS011;3549;42.162;24.726;2022-09-30T03:53:01;13.93;;;9.00;;
7017;SDS011;3549;42.162;24.726;2022-09-30T03:55:28;18.23;;;9.27;;
7017;SDS011;3549;42.162;24.726;2022-09-30T03:57:57;18.30;;;9.17;;
7017;SDS011;3549;42.162;24.726;2022-09-30T04:00:23;13.97;;;8.40;;
7017;SDS011;3549;42.162;24.726;2022-09-30T04:02:48;13.23;;;8.53;;
7017;SDS011;3549;42.162;24.726;2022-09-30T04:05:13;15.87;;;9.20;;
7017;SDS011;3549;42.162;24.726;2022-09-30T04:07:39;18.00;;;9.70;;
7017;SDS011;3549;42.162;24.726;2022-09-30T04:10:04;19.90;;;9.00;;
7017;SDS011;3549;42.162;24.726;2022-09-30T04:12:30;21.50;;;13.77;;
7017;SDS011;3549;42.162;24.726;2022-09-30T04:14:56;20.90;;;11.70;;
7017;SDS011;3549;42.162;24.726;2022-09-30T04:17:21;24.13;;;13.13;;
7017;SDS011;3549;42.162;24.726;2022-09-30T04:19:47;24.43;;;13.00;;
7017;SDS011;3549;42.162;24.726;2022-09-30T04:22:12;22.20;;;12.77;;
7017;SDS011;3549;42.162;24.726;2022-09-30T04:24:38;18.10;;;10.90;;
7017;SDS011;3549;42.162;24.726;2022-09-30T04:27:03;15.57;;;9.60;;
7017;SDS011;3549;42.162;24.726;2022-09-30T04:29:29;14.97;;;9.07;;
7017;SDS011;3549;42.162;24.726;2022-09-30T04:31:55;17.97;;;9.23;;
7017;SDS011;3549;42.162;24.726;2022-09-30T04:34:20;15.00;;;9.43;;
7017;SDS011;3549;42.162;24.726;2022-09-30T04:36:46;13.40;;;8.73;;
7017;SDS011;3549;42.162;24.726;2022-09-30T04:39:11;12.70;;;9.10;;
7017;SDS011;3549;42.162;24.726;2022-09-30T04:41:37;15.60;;;8.50;;
7017;SDS011;3549;42.162;24.726;2022-09-30T04:44:02;14.30;;;8.57;;
7017;SDS011;3549;42.162;24.726;2022-09-30T04:46:30;16.40;;;9.20;;
7017;SDS011;3549;42.162;24.726;2022-09-30T04:48:56;13.17;;;8.30;;
7017;SDS011;3549;42.162;24.726;2022-09-30T04:51:22;15.37;;;8.90;;
7017;SDS011;3549;42.162;24.726;2022-09-30T04:53:47;16.63;;;9.00;;
7017;SDS011;3549;42.162;24.726;2022-09-30T04:56:13;16.10;;;8.53;;
7017;SDS011;3549;42.162;24.726;2022-09-30T04:58:40;15.33;;;8.73;;
7017;SDS011;3549;42.162;24.726;2022-09-30T05:01:07;22.27;;;11.67;;
7017;SDS011;3549;42.162;24.726;2022-09-30T05:03:38;33.30;;;20.70;;
7017;SDS011;3549;42.162;24.726;2022-09-30T05:06:04;37.80;;;19.47;;
7017;SDS011;3549;42.162;24.726;2022-09-30T05:08:30;36.03;;;22.87;;
7017;SDS011;3549;42.162;24.726;2022-09-30T05:11:07;31.33;;;18.83;;
7017;SDS011;3549;42.162;24.726;2022-09-30T05:13:35;27.57;;;12.80;;
7017;SDS011;3549;42.162;24.726;2022-09-30T05:16:03;14.27;;;8.80;;
7017;SDS011;3549;42.162;24.726;2022-09-30T05:18:29;14.30;;;8.63;;
7017;SDS011;3549;42.162;24.726;2022-09-30T05:20:56;15.23;;;8.87;;
7017;SDS011;3549;42.162;24.726;2022-09-30T05:23:22;17.70;;;8.83;;
7017;SDS011;3549;42.162;24.726;2022-09-30T05:25:50;15.77;;;9.17;;
7017;SDS011;3549;42.162;24.726;2022-09-30T05:28:16;12.93;;;8.70;;
7017;SDS011;3549;42.162;24.726;2022-09-30T05:30:42;16.13;;;9.30;;
7017;SDS011;3549;42.162;24.726;2022-09-30T05:33:08;18.27;;;10.60;;
7017;SDS011;3549;42.162;24.726;2022-09-30T05:35:34;15.57;;;10.27;;
7017;SDS011;3549;42.162;24.726;2022-09-30T05:38:00;18.17;;;10.20;;
7017;SDS011;3549;42.162;24.726;2022-09-30T05:40:27;15.93;;;10.23;;
7017;SDS011;3549;42.162;24.726;2022-09-30T05:42:53;17.23;;;9.87;;
7017;SDS011;3549;42.162;24.726;2022-09-30T05:45:21;20.37;;;9.93;;
7017;SDS011;3549;42.162;24.726;2022-09-30T05:47:50;18.00;;;9.20;;
7017;SDS011;3549;42.162;24.726;2022-09-30T05:50:19;13.73;;;9.00;;
7017;SDS011;3549;42.162;24.726;2022-09-30T05:52:45;16.77;;;8.37;;
7017;SDS011;3549;42.162;24.726;2022-09-30T05:55:11;11.70;;;8.10;;
7017;SDS011;3549;42.162;24.726;2022-09-30T05:57:36;11.83;;;8.07;;
7017;SDS011;3549;42.162;24.726;2022-09-30T06:00:02;16.23;;;8.90;;
7017;SDS011;3549;42.162;24.726;2022-09-30T06:02:29;13.73;;;8.77;;
7017;SDS011;3549;42.162;24.726;2022-09-30T06:04:54;10.53;;;8.00;;
7017;SDS011;3549;42.162;24.726;2022-09-30T06:07:19;15.07;;;8.83;;
7017;SDS011;3549;42.162;24.726;2022-09-30T06:09:45;15.10;;;8.90;;
7017;SDS011;3549;42.162;24.726;2022-09-30T06:12:10;14.33;;;9.20;;
7017;SDS011;3549;42.162;24.726;2022-09-30T06:14:36;11.90;;;9.33;;
7017;SDS011;3549;42.162;24.726;2022-09-30T06:17:02;13.60;;;9.17;;
7017;SDS011;3549;42.162;24.726;2022-09-30T06:19:27;21.50;;;9.57;;
7017;SDS011;3549;42.162;24.726;2022-09-30T06:21:54;15.53;;;9.33;;
7017;SDS011;3549;42.162;24.726;2022-09-30T06:24:20;17.17;;;10.87;;
7017;SDS011;3549;42.162;24.726;2022-09-30T06:26:46;17.77;;;10.10;;
7017;SDS011;3549;42.162;24.726;2022-09-30T06:29:11;14.10;;;9.93;;
7017;SDS011;3549;42.162;24.726;2022-09-30T06:31:37;13.73;;;9.30;;
7017;SDS011;3549;42.162;24.726;2022-09-30T06:34:02;12.37;;;9.17;;
7017;SDS011;3549;42.162;24.726;2022-09-30T06:36:29;12.13;;;8.80;;
7017;SDS011;3549;42.162;24.726;2022-09-30T06:38:56;13.60;;;9.17;;
7017;SDS011;3549;42.162;24.726;2022-09-30T06:41:27;14.70;;;9.03;;
7017;SDS011;3549;42.162;24.726;2022-09-30T06:44:13;14.47;;;8.67;;
7017;SDS011;3549;42.162;24.726;2022-09-30T06:46:39;15.70;;;8.50;;
7017;SDS011;3549;42.162;24.726;2022-09-30T06:49:04;19.47;;;8.67;;
7017;SDS011;3549;42.162;24.726;2022-09-30T06:51:31;12.87;;;8.43;;
7017;SDS011;3549;42.162;24.726;2022-09-30T06:53:57;17.63;;;8.47;;
7017;SDS011;3549;42.162;24.726;2022-09-30T06:56:23;19.27;;;8.40;;
7017;SDS011;3549;42.162;24.726;2022-09-30T06:58:48;17.03;;;8.30;;
7017;SDS011;3549;42.162;24.726;2022-09-30T07:01:14;21.33;;;8.57;;
7017;SDS011;3549;42.162;24.726;2022-09-30T07:03:43;21.00;;;9.57;;
7017;SDS011;3549;42.162;24.726;2022-09-30T07:06:10;10.10;;;7.10;;
7017;SDS011;3549;42.162;24.726;2022-09-30T07:08:37;10.57;;;6.83;;
7017;SDS011;3549;42.162;24.726;2022-09-30T07:11:05;12.03;;;8.00;;
7017;SDS011;3549;42.162;24.726;2022-09-30T07:13:42;8.53;;;5.77;;
7017;SDS011;3549;42.162;24.726;2022-09-30T07:16:09;7.03;;;5.93;;
7017;SDS011;3549;42.162;24.726;2022-09-30T07:18:36;7.20;;;5.63;;
7017;SDS011;3549;42.162;24.726;2022-09-30T07:21:03;10.30;;;5.60;;
7017;SDS011;3549;42.162;24.726;2022-09-30T07:23:29;7.37;;;5.43;;
7017;SDS011;3549;42.162;24.726;2022-09-30T07:25:57;8.70;;;5.93;;
7017;SDS011;3549;42.162;24.726;2022-09-30T07:28:29;8.37;;;5.23;;
7017;SDS011;3549;42.162;24.726;2022-09-30T07:30:58;7.77;;;5.27;;
7017;SDS011;3549;42.162;24.726;2022-09-30T07:33:26;7.60;;;5.57;;
7017;SDS011;3549;42.162;24.726;2022-09-30T07:35:55;6.93;;;5.00;;
7017;SDS011;3549;42.162;24.726;2022-09-30T07:38:23;9.73;;;5.30;;
7017;SDS011;3549;42.162;24.726;2022-09-30T07:40:51;9.50;;;5.73;;
7017;SDS011;3549;42.162;24.726;2022-09-30T07:43:17;6.67;;;5.00;;
7017;SDS011;3549;42.162;24.726;2022-09-30T07:45:44;7.40;;;4.90;;
7017;SDS011;3549;42.162;24.726;2022-09-30T07:48:13;7.63;;;5.17;;
7017;SDS011;3549;42.162;24.726;2022-09-30T07:50:58;8.93;;;5.13;;
7017;SDS011;3549;42.162;24.726;2022-09-30T07:53:49;8.67;;;4.90;;
7017;SDS011;3549;42.162;24.726;2022-09-30T07:56:43;12.53;;;5.83;;
7017;SDS011;3549;42.162;24.726;2022-09-30T07:59:13;9.17;;;5.63;;
7017;SDS011;3549;42.162;24.726;2022-09-30T08:01:39;7.67;;;5.63;;
7017;SDS011;3549;42.162;24.726;2022-09-30T08:04:06;9.33;;;5.90;;
7017;SDS011;3549;42.162;24.726;2022-09-30T08:06:35;8.97;;;6.13;;
7017;SDS011;3549;42.162;24.726;2022-09-30T08:09:03;12.23;;;5.57;;
7017;SDS011;3549;42.162;24.726;2022-09-30T08:11:32;10.20;;;5.97;;
7017;SDS011;3549;42.162;24.726;2022-09-30T08:13:58;8.33;;;5.03;;
7017;SDS011;3549;42.162;24.726;2022-09-30T08:16:24;7.20;;;5.00;;
7017;SDS011;3549;42.162;24.726;2022-09-30T08:19:00;8.70;;;4.97;;
7017;SDS011;3549;42.162;24.726;2022-09-30T08:21:26;10.07;;;5.40;;
7017;SDS011;3549;42.162;24.726;2022-09-30T08:23:52;7.10;;;5.00;;
7017;SDS011;3549;42.162;24.726;2022-09-30T08:26:18;8.17;;;5.00;;
7017;SDS011;3549;42.162;24.726;2022-09-30T08:28:44;7.23;;;4.97;;
7017;SDS011;3549;42.162;24.726;2022-09-30T08:31:14;7.73;;;5.27;;
7017;SDS011;3549;42.162;24.726;2022-09-30T08:33:42;10.90;;;5.10;;
7017;SDS011;3549;42.162;24.726;2022-09-30T08:36:09;11.07;;;4.97;;
7017;SDS011;3549;42.162;24.726;2022-09-30T08:38:40;8.77;;;5.10;;
7017;SDS011;3549;42.162;24.726;2022-09-30T08:46:40;6.50;;;4.90;;
7017;SDS011;3549;42.162;24.726;2022-09-30T08:49:31;7.00;;;4.70;;
7017;SDS011;3549;42.162;24.726;2022-09-30T08:52:01;13.20;;;5.40;;
7017;SDS011;3549;42.162;24.726;2022-09-30T08:54:30;8.98;;;4.78;;
7017;SDS011;3549;42.162;24.726;2022-09-30T08:56:59;7.68;;;5.07;;
7017;SDS011;3549;42.162;24.726;2022-09-30T08:59:38;7.90;;;5.10;;
7017;SDS011;3549;42.162;24.726;2022-09-30T09:04:34;6.22;;;4.85;;
7017;SDS011;3549;42.162;24.726;2022-09-30T09:07:07;8.93;;;4.60;;
7017;SDS011;3549;42.162;24.726;2022-09-30T09:23:03;7.68;;;4.90;;
7017;SDS011;3549;42.162;24.726;2022-09-30T09:25:37;9.38;;;5.10;;
7017;SDS011;3549;42.162;24.726;2022-09-30T09:28:05;6.72;;;4.65;;
7017;SDS011;3549;42.162;24.726;2022-09-30T09:30:48;6.00;;;4.93;;
7017;SDS011;3549;42.162;24.726;2022-09-30T09:33:19;8.18;;;5.00;;
7017;SDS011;3549;42.162;24.726;2022-09-30T09:36:04;6.35;;;4.80;;
7017;SDS011;3549;42.162;24.726;2022-09-30T09:44:22;8.45;;;4.78;;
7017;SDS011;3549;42.162;24.726;2022-09-30T09:47:07;8.70;;;4.70;;
7017;SDS011;3549;42.162;24.726;2022-09-30T09:49:39;7.82;;;4.50;;
7017;SDS011;3549;42.162;24.726;2022-09-30T09:54:40;7.90;;;4.70;;
7017;SDS011;3549;42.162;24.726;2022-09-30T09:57:18;6.68;;;4.70;;
7017;SDS011;3549;42.162;24.726;2022-09-30T10:05:33;6.97;;;4.82;;
7017;SDS011;3549;42.162;24.726;2022-09-30T10:08:17;12.18;;;5.13;;
7017;SDS011;3549;42.162;24.726;2022-09-30T10:13:45;8.50;;;4.72;;
7017;SDS011;3549;42.162;24.726;2022-09-30T10:18:56;5.47;;;4.68;;
7017;SDS011;3549;42.162;24.726;2022-09-30T10:21:23;5.45;;;4.38;;
7017;SDS011;3549;42.162;24.726;2022-09-30T10:23:51;5.60;;;4.50;;
7017;SDS011;3549;42.162;24.726;2022-09-30T10:26:18;8.95;;;4.97;;
7017;SDS011;3549;42.162;24.726;2022-09-30T10:28:52;7.60;;;4.70;;
7017;SDS011;3549;42.162;24.726;2022-09-30T10:36:46;6.30;;;4.57;;
7017;SDS011;3549;42.162;24.726;2022-09-30T10:41:48;9.05;;;5.00;;
7017;SDS011;3549;42.162;24.726;2022-09-30T10:44:16;7.78;;;4.35;;
7017;SDS011;3549;42.162;24.726;2022-09-30T10:46:46;6.97;;;4.70;;
7017;SDS011;3549;42.162;24.726;2022-09-30T10:52:00;5.28;;;4.65;;
7017;SDS011;3549;42.162;24.726;2022-09-30T10:54:49;6.18;;;4.57;;
7017;SDS011;3549;42.162;24.726;2022-09-30T10:57:17;9.07;;;4.45;;
7017;SDS011;3549;42.162;24.726;2022-09-30T10:59:46;9.05;;;5.00;;
7017;SDS011;3549;42.162;24.726;2022-09-30T11:19:21;6.82;;;4.75;;
7017;SDS011;3549;42.162;24.726;2022-09-30T11:22:15;13.80;;;4.85;;
7017;SDS011;3549;42.162;24.726;2022-09-30T11:24:58;7.90;;;4.80;;
7017;SDS011;3549;42.162;24.726;2022-09-30T11:35:45;7.25;;;4.57;;
7017;SDS011;3549;42.162;24.726;2022-09-30T11:44:13;5.25;;;4.57;;
7017;SDS011;3549;42.162;24.726;2022-09-30T11:57:51;4.78;;;3.35;;
7017;SDS011;3549;42.162;24.726;2022-09-30T12:00:21;6.00;;;4.10;;
7017;SDS011;3549;42.162;24.726;2022-09-30T12:02:49;7.85;;;4.38;;
7017;SDS011;3549;42.162;24.726;2022-09-30T12:05:28;10.13;;;4.18;;
7017;SDS011;3549;42.162;24.726;2022-09-30T12:08:08;6.93;;;4.10;;
7017;SDS011;3549;42.162;24.726;2022-09-30T12:10:41;6.95;;;3.95;;
7017;SDS011;3549;42.162;24.726;2022-09-30T12:13:25;4.60;;;3.53;;
7017;SDS011;3549;42.162;24.726;2022-09-30T12:15:55;4.95;;;3.60;;
7017;SDS011;3549;42.162;24.726;2022-09-30T12:21:00;7.35;;;4.03;;
7017;SDS011;3549;42.162;24.726;2022-09-30T12:23:53;8.32;;;4.30;;
7017;SDS011;3549;42.162;24.726;2022-09-30T12:26:23;7.97;;;3.90;;
7017;SDS011;3549;42.162;24.726;2022-09-30T12:40:13;6.07;;;3.75;;
7017;SDS011;3549;42.162;24.726;2022-09-30T12:43:05;5.82;;;4.00;;
7017;SDS011;3549;42.162;24.726;2022-09-30T12:48:38;6.68;;;3.95;;
7017;SDS011;3549;42.162;24.726;2022-09-30T12:51:18;11.07;;;6.10;;
7017;SDS011;3549;42.162;24.726;2022-09-30T12:53:50;7.07;;;4.00;;
7017;SDS011;3549;42.162;24.726;2022-09-30T12:56:22;4.88;;;3.60;;
7017;SDS011;3549;42.162;24.726;2022-09-30T12:58:54;4.00;;;3.60;;
7017;SDS011;3549;42.162;24.726;2022-09-30T13:01:31;5.80;;;4.00;;
7017;SDS011;3549;42.162;24.726;2022-09-30T13:14:14;7.60;;;4.00;;
7017;SDS011;3549;42.162;24.726;2022-09-30T13:19:48;7.45;;;4.57;;
7017;SDS011;3549;42.162;24.726;2022-09-30T13:27:35;5.65;;;4.15;;
7017;SDS011;3549;42.162;24.726;2022-09-30T13:32:39;5.68;;;4.00;;
7017;SDS011;3549;42.162;24.726;2022-09-30T13:40:48;5.95;;;4.22;;
7017;SDS011;3549;42.162;24.726;2022-09-30T13:43:38;7.18;;;4.18;;
7017;SDS011;3549;42.162;24.726;2022-09-30T13:51:42;7.38;;;4.00;;
7017;SDS011;3549;42.162;24.726;2022-09-30T13:57:00;6.00;;;3.45;;
7017;SDS011;3549;42.162;24.726;2022-09-30T14:11:18;5.80;;;3.72;;
7017;SDS011;3549;42.162;24.726;2022-09-30T14:22:49;6.05;;;4.07;;
7017;SDS011;3549;42.162;24.726;2022-09-30T14:25:15;7.45;;;4.70;;
7017;SDS011;3549;42.162;24.726;2022-09-30T14:27:48;6.10;;;4.40;;
7017;SDS011;3549;42.162;24.726;2022-09-30T14:30:30;4.85;;;4.00;;
7017;SDS011;3549;42.162;24.726;2022-09-30T14:33:13;5.78;;;4.30;;
7017;SDS011;3549;42.162;24.726;2022-09-30T14:35:50;5.63;;;3.70;;
7017;SDS011;3549;42.162;24.726;2022-09-30T14:38:18;5.72;;;4.32;;
7017;SDS011;3549;42.162;24.726;2022-09-30T14:40:51;5.82;;;4.20;;
7017;SDS011;3549;42.162;24.726;2022-09-30T14:43:20;6.18;;;4.25;;
7017;SDS011;3549;42.162;24.726;2022-09-30T14:45:55;8.85;;;4.30;;
7017;SDS011;3549;42.162;24.726;2022-09-30T14:48:27;6.55;;;4.30;;
7017;SDS011;3549;42.162;24.726;2022-09-30T14:51:01;8.85;;;4.82;;
7017;SDS011;3549;42.162;24.726;2022-09-30T14:53:40;8.95;;;5.35;;
7017;SDS011;3549;42.162;24.726;2022-09-30T14:56:30;6.45;;;4.30;;
7017;SDS011;3549;42.162;24.726;2022-09-30T14:58:58;8.90;;;4.85;;
7017;SDS011;3549;42.162;24.726;2022-09-30T15:01:29;8.43;;;5.80;;
7017;SDS011;3549;42.162;24.726;2022-09-30T15:06:32;8.10;;;5.38;;
7017;SDS011;3549;42.162;24.726;2022-09-30T15:09:03;7.13;;;5.45;;
7017;SDS011;3549;42.162;24.726;2022-09-30T15:11:32;16.98;;;7.68;;
7017;SDS011;3549;42.162;24.726;2022-09-30T15:14:01;13.02;;;6.80;;
7017;SDS011;3549;42.162;24.726;2022-09-30T15:16:30;14.05;;;7.00;;
7017;SDS011;3549;42.162;24.726;2022-09-30T15:18:56;13.43;;;7.18;;
7017;SDS011;3549;42.162;24.726;2022-09-30T15:21:23;15.23;;;6.93;;
7017;SDS011;3549;42.162;24.726;2022-09-30T15:23:51;10.90;;;7.60;;
7017;SDS011;3549;42.162;24.726;2022-09-30T15:26:20;15.30;;;8.88;;
7017;SDS011;3549;42.162;24.726;2022-09-30T15:28:48;13.95;;;8.70;;
7017;SDS011;3549;42.162;24.726;2022-09-30T15:31:19;16.00;;;7.30;;
7017;SDS011;3549;42.162;24.726;2022-09-30T15:34:00;13.30;;;7.78;;
7017;SDS011;3549;42.162;24.726;2022-09-30T15:36:37;12.93;;;7.70;;
7017;SDS011;3549;42.162;24.726;2022-09-30T15:39:03;13.75;;;7.88;;
7017;SDS011;3549;42.162;24.726;2022-09-30T15:41:37;16.95;;;8.43;;
7017;SDS011;3549;42.162;24.726;2022-09-30T15:44:06;14.50;;;7.80;;
7017;SDS011;3549;42.162;24.726;2022-09-30T15:46:41;92.57;;;62.70;;
7017;SDS011;3549;42.162;24.726;2022-09-30T15:49:29;33.92;;;16.15;;
7017;SDS011;3549;42.162;24.726;2022-09-30T15:57:59;42.90;;;26.80;;
7017;SDS011;3549;42.162;24.726;2022-09-30T16:00:35;40.45;;;20.13;;
7017;SDS011;3549;42.162;24.726;2022-09-30T16:03:06;32.35;;;16.17;;
7017;SDS011;3549;42.162;24.726;2022-09-30T16:05:33;24.77;;;14.77;;
7017;SDS011;3549;42.162;24.726;2022-09-30T16:07:58;31.70;;;15.48;;
7017;SDS011;3549;42.162;24.726;2022-09-30T16:10:24;28.55;;;14.68;;
7017;SDS011;3549;42.162;24.726;2022-09-30T16:12:53;33.78;;;16.20;;
7017;SDS011;3549;42.162;24.726;2022-09-30T16:15:18;30.60;;;20.90;;
7017;SDS011;3549;42.162;24.726;2022-09-30T16:17:44;20.52;;;9.40;;
7017;SDS011;3549;42.162;24.726;2022-09-30T16:27:34;11.35;;;8.75;;
7017;SDS011;3549;42.162;24.726;2022-09-30T16:30:00;17.23;;;10.52;;
7017;SDS011;3549;42.162;24.726;2022-09-30T16:32:26;21.38;;;14.15;;
7017;SDS011;3549;42.162;24.726;2022-09-30T16:34:55;24.23;;;14.48;;
7017;SDS011;3549;42.162;24.726;2022-09-30T16:37:21;59.88;;;41.60;;
7017;SDS011;3549;42.162;24.726;2022-09-30T16:39:47;78.88;;;50.22;;
7017;SDS011;3549;42.162;24.726;2022-09-30T16:42:14;64.47;;;46.35;;
7017;SDS011;3549;42.162;24.726;2022-09-30T16:44:40;49.80;;;33.90;;
7017;SDS011;3549;42.162;24.726;2022-09-30T16:47:17;37.80;;;26.35;;
7017;SDS011;3549;42.162;24.726;2022-09-30T16:49:45;122.40;;;85.65;;
7017;SDS011;3549;42.162;24.726;2022-09-30T16:52:11;41.90;;;24.17;;
7017;SDS011;3549;42.162;24.726;2022-09-30T16:54:38;38.20;;;21.80;;
7017;SDS011;3549;42.162;24.726;2022-09-30T16:57:04;41.70;;;21.02;;
7017;SDS011;3549;42.162;24.726;2022-09-30T16:59:30;60.58;;;41.35;;
7017;SDS011;3549;42.162;24.726;2022-09-30T17:01:59;131.80;;;97.65;;
7017;SDS011;3549;42.162;24.726;2022-09-30T17:04:27;99.88;;;68.75;;
7017;SDS011;3549;42.162;24.726;2022-09-30T17:06:55;188.82;;;127.72;;
7017;SDS011;3549;42.162;24.726;2022-09-30T17:09:21;150.13;;;89.40;;
7017;SDS011;3549;42.162;24.726;2022-09-30T17:11:47;76.13;;;42.97;;
7017;SDS011;3549;42.162;24.726;2022-09-30T17:14:15;32.37;;;16.10;;
7017;SDS011;3549;42.162;24.726;2022-09-30T17:16:41;28.07;;;13.10;;
7017;SDS011;3549;42.162;24.726;2022-09-30T17:19:07;29.17;;;14.20;;
7017;SDS011;3549;42.162;24.726;2022-09-30T17:21:32;27.90;;;15.90;;
7017;SDS011;3549;42.162;24.726;2022-09-30T17:23:58;32.23;;;16.80;;
7017;SDS011;3549;42.162;24.726;2022-09-30T17:26:23;31.93;;;18.87;;
7017;SDS011;3549;42.162;24.726;2022-09-30T17:28:49;56.77;;;36.93;;
7017;SDS011;3549;42.162;24.726;2022-09-30T17:31:14;38.80;;;20.60;;
7017;SDS011;3549;42.162;24.726;2022-09-30T17:33:40;138.87;;;99.70;;
7017;SDS011;3549;42.162;24.726;2022-09-30T17:36:10;68.13;;;40.67;;
7017;SDS011;3549;42.162;24.726;2022-09-30T17:38:36;108.07;;;68.00;;
7017;SDS011;3549;42.162;24.726;2022-09-30T17:41:03;82.73;;;54.53;;
7017;SDS011;3549;42.162;24.726;2022-09-30T17:43:47;108.40;;;59.60;;
7017;SDS011;3549;42.162;24.726;2022-09-30T17:46:13;114.07;;;68.07;;
7017;SDS011;3549;42.162;24.726;2022-09-30T17:48:46;39.60;;;25.70;;
7017;SDS011;3549;42.162;24.726;2022-09-30T17:51:12;60.43;;;32.43;;
7017;SDS011;3549;42.162;24.726;2022-09-30T17:53:40;75.00;;;48.53;;
7017;SDS011;3549;42.162;24.726;2022-09-30T17:56:10;40.43;;;24.10;;
7017;SDS011;3549;42.162;24.726;2022-09-30T17:58:41;34.17;;;22.30;;
7017;SDS011;3549;42.162;24.726;2022-09-30T18:01:11;39.23;;;27.40;;
7017;SDS011;3549;42.162;24.726;2022-09-30T18:03:38;42.93;;;28.47;;
7017;SDS011;3549;42.162;24.726;2022-09-30T18:06:04;27.60;;;18.57;;
7017;SDS011;3549;42.162;24.726;2022-09-30T18:08:30;23.80;;;13.10;;
7017;SDS011;3549;42.162;24.726;2022-09-30T18:10:55;21.03;;;13.00;;
7017;SDS011;3549;42.162;24.726;2022-09-30T18:13:22;20.37;;;13.13;;
7017;SDS011;3549;42.162;24.726;2022-09-30T18:15:48;36.00;;;16.23;;
7017;SDS011;3549;42.162;24.726;2022-09-30T18:18:13;22.43;;;12.17;;
7017;SDS011;3549;42.162;24.726;2022-09-30T18:20:44;30.27;;;14.67;;
7017;SDS011;3549;42.162;24.726;2022-09-30T18:23:11;68.67;;;43.80;;
7017;SDS011;3549;42.162;24.726;2022-09-30T18:25:36;83.10;;;53.73;;
7017;SDS011;3549;42.162;24.726;2022-09-30T18:28:03;51.03;;;31.10;;
7017;SDS011;3549;42.162;24.726;2022-09-30T18:30:32;166.27;;;82.93;;
7017;SDS011;3549;42.162;24.726;2022-09-30T18:32:58;55.40;;;31.87;;
7017;SDS011;3549;42.162;24.726;2022-09-30T18:35:24;29.43;;;19.10;;
7017;SDS011;3549;42.162;24.726;2022-09-30T18:37:50;26.00;;;15.83;;
7017;SDS011;3549;42.162;24.726;2022-09-30T18:40:17;37.77;;;22.03;;
7017;SDS011;3549;42.162;24.726;2022-09-30T18:42:45;23.67;;;15.70;;
7017;SDS011;3549;42.162;24.726;2022-09-30T18:45:10;13.47;;;9.23;;
7017;SDS011;3549;42.162;24.726;2022-09-30T18:47:40;16.10;;;11.60;;
7017;SDS011;3549;42.162;24.726;2022-09-30T18:50:11;22.67;;;18.83;;
7017;SDS011;3549;42.162;24.726;2022-09-30T18:52:37;32.17;;;28.73;;
7017;SDS011;3549;42.162;24.726;2022-09-30T18:55:04;15.93;;;9.03;;
7017;SDS011;3549;42.162;24.726;2022-09-30T18:57:31;13.40;;;9.00;;
7017;SDS011;3549;42.162;24.726;2022-09-30T18:59:58;15.30;;;8.87;;
7017;SDS011;3549;42.162;24.726;2022-09-30T19:02:25;16.80;;;11.30;;
7017;SDS011;3549;42.162;24.726;2022-09-30T19:04:52;22.50;;;16.87;;